NC22 weather

Charles Field
Dunn, North Carolina, United States

Public forecast

Using degrees Fahrenheit for public forecast. Weather courtesy of forecast.io.

Closest aviation weather report (METAR) to Charles Field

Closest report is Harnett Regional Jetport Airport, 12.6 nm (23.4 km) NW. Retrieved 2020/02/21 06:35 UTC (3 minutes ago):

KHRJ 210635Z AUTO 36006KT 10SM -RA OVC010 01/01 A3031 RMK AO2 T00090009

Closest aviation forecast (TAF) to Charles Field

Closest forecast is Simmons Army Air Field, 19.6 nm (36.3 km) WSW. Retrieved 2020-02-21 02:03 UTC (5 hours ago):

TAF TAF KFBG 210200Z 2102/2208 04010G15KT 4800 -SN OVC005 620259 520503 QNH3025INS TEMPO 2102/2108 0800 SN BECMG 2109/2110 02012G18KT 9999 NSW BKN012 OVC070 620129 QNH3021INS BECMG 2110/2111 01012G18KT 9999 SCT020 BKN100 QNH3026INS BECMG 2114/2115 01015G25KT 9999 SKC QNH3031INS BECMG 2120/2121 02008KT 9999 SKC QNH3033INS TX05/2120Z TNM02/2202Z